This is the latest recevied weather packets stored in our database for station/object G8PZT. If no packets are shown the sender has not sent any weather packets the latest 10 day(s).
| Time | Temp. | Humidity | Pressure | Rain* | Wind** | Luminosity | Snow |
|---|---|---|---|---|---|---|---|
| 1777809715 | 15.56° C | 37% | - | 0 mm | - | - | - |
| 1777809602 | 15.56° C | 37% | - | 0 mm | - | - | - |
| 1777809115 | 16.11° C | 38% | - | 0 mm | - | - | - |
| 1777808516 | 16.11° C | 40% | - | 0 mm | - | - | - |
| 1777808402 | 16.11° C | 40% | - | 0 mm | - | - | - |
| 1777807916 | 15.56° C | 40% | - | 0 mm | - | - | - |
| 1777807315 | 16.11° C | 39% | - | 0 mm | - | - | - |
| 1777807202 | 16.67° C | 38% | - | 0 mm | - | - | - |
| 1777806716 | 16.11° C | 38% | - | 0 mm | - | - | - |
| 1777806116 | 16.67° C | 35% | - | 0 mm | - | - | - |
| 1777806002 | 16.67° C | 35% | - | 0 mm | - | - | - |
| 1777805516 | 17.22° C | 38% | - | 0 mm | - | - | - |
| 1777804802 | 15° C | 45% | - | 0 mm | - | - | - |
| 1777804316 | 14.44° C | 44% | - | 0 mm | - | - | - |
| 1777803716 | 15° C | 40% | - | 0 mm | - | - | - |
| 1777803602 | 15° C | 40% | - | 0 mm | - | - | - |
| 1777803115 | 15.56° C | 41% | - | 0 mm | - | - | - |
| 1777802515 | 14.44° C | 46% | - | 0 mm | - | - | - |
| 1777802402 | 14.44° C | 48% | - | 0 mm | - | - | - |
| 1777801915 | 12.78° C | 51% | - | 0 mm | - | - | - |
| 1777801316 | 12.78° C | 51% | - | 0 mm | - | - | - |
| 1777801202 | 12.78° C | 51% | - | 0 mm | - | - | - |
| 1777800716 | 13.89° C | 53% | - | 0 mm | - | - | - |
| 1777800116 | 13.33° C | 52% | - | 0 mm | - | - | - |
| 1777800003 | 13.33° C | 53% | - | 0 mm | - | - | - |
* Rain latest hour (hover to see other rain measurements)
** Current wind speed in m/s (hover to see current wind gust speed)